sensor_id;sensor_type;location;lat;lon;timestamp;P1;durP1;ratioP1;P2;durP2;ratioP2
76171;SDS011;64929;51.178;4.138;2023-06-14T00:00:51;3.85;;;3.38;;
76171;SDS011;64929;51.178;4.138;2023-06-14T00:03:17;4.07;;;3.13;;
76171;SDS011;64929;51.178;4.138;2023-06-14T00:05:47;5.97;;;4.32;;
76171;SDS011;64929;51.178;4.138;2023-06-14T00:08:14;4.03;;;3.38;;
76171;SDS011;64929;51.178;4.138;2023-06-14T00:10:40;4.38;;;3.00;;
76171;SDS011;64929;51.178;4.138;2023-06-14T00:13:07;5.43;;;3.33;;
76171;SDS011;64929;51.178;4.138;2023-06-14T00:15:34;6.22;;;3.72;;
76171;SDS011;64929;51.178;4.138;2023-06-14T00:18:00;10.68;;;3.33;;
76171;SDS011;64929;51.178;4.138;2023-06-14T00:20:26;3.30;;;2.95;;
76171;SDS011;64929;51.178;4.138;2023-06-14T00:22:53;5.28;;;3.70;;
76171;SDS011;64929;51.178;4.138;2023-06-14T00:25:20;4.75;;;3.67;;
76171;SDS011;64929;51.178;4.138;2023-06-14T00:27:47;6.38;;;3.72;;
76171;SDS011;64929;51.178;4.138;2023-06-14T00:30:13;3.42;;;3.13;;
76171;SDS011;64929;51.178;4.138;2023-06-14T00:32:39;5.18;;;3.65;;
76171;SDS011;64929;51.178;4.138;2023-06-14T00:35:05;4.15;;;3.50;;
76171;SDS011;64929;51.178;4.138;2023-06-14T00:37:32;5.43;;;3.67;;
76171;SDS011;64929;51.178;4.138;2023-06-14T00:39:58;6.45;;;3.72;;
76171;SDS011;64929;51.178;4.138;2023-06-14T00:42:24;4.65;;;3.80;;
76171;SDS011;64929;51.178;4.138;2023-06-14T00:44:53;4.93;;;3.85;;
76171;SDS011;64929;51.178;4.138;2023-06-14T00:47:19;6.38;;;4.55;;
76171;SDS011;64929;51.178;4.138;2023-06-14T00:49:45;5.03;;;4.07;;
76171;SDS011;64929;51.178;4.138;2023-06-14T00:52:13;6.97;;;4.13;;
76171;SDS011;64929;51.178;4.138;2023-06-14T00:54:42;5.40;;;4.13;;
76171;SDS011;64929;51.178;4.138;2023-06-14T00:57:09;6.28;;;4.05;;
76171;SDS011;64929;51.178;4.138;2023-06-14T00:59:43;4.28;;;3.88;;
76171;SDS011;64929;51.178;4.138;2023-06-14T01:02:11;4.28;;;3.80;;
76171;SDS011;64929;51.178;4.138;2023-06-14T01:04:38;6.38;;;4.00;;
76171;SDS011;64929;51.178;4.138;2023-06-14T01:09:48;4.68;;;4.10;;
76171;SDS011;64929;51.178;4.138;2023-06-14T01:15:16;4.93;;;3.50;;
76171;SDS011;64929;51.178;4.138;2023-06-14T01:17:42;4.70;;;3.42;;
76171;SDS011;64929;51.178;4.138;2023-06-14T01:20:13;4.47;;;3.20;;
76171;SDS011;64929;51.178;4.138;2023-06-14T01:23:00;4.18;;;3.58;;
76171;SDS011;64929;51.178;4.138;2023-06-14T01:25:27;4.65;;;3.38;;
76171;SDS011;64929;51.178;4.138;2023-06-14T01:27:53;4.45;;;3.40;;
76171;SDS011;64929;51.178;4.138;2023-06-14T01:30:23;3.90;;;3.40;;
76171;SDS011;64929;51.178;4.138;2023-06-14T01:32:50;4.60;;;3.53;;
76171;SDS011;64929;51.178;4.138;2023-06-14T01:35:17;5.00;;;3.70;;
76171;SDS011;64929;51.178;4.138;2023-06-14T01:37:43;3.50;;;3.20;;
76171;SDS011;64929;51.178;4.138;2023-06-14T01:40:11;13.40;;;5.25;;
76171;SDS011;64929;51.178;4.138;2023-06-14T01:42:39;4.30;;;3.55;;
76171;SDS011;64929;51.178;4.138;2023-06-14T01:45:06;5.25;;;3.65;;
76171;SDS011;64929;51.178;4.138;2023-06-14T01:47:34;4.15;;;3.33;;
76171;SDS011;64929;51.178;4.138;2023-06-14T01:50:01;4.88;;;3.40;;
76171;SDS011;64929;51.178;4.138;2023-06-14T01:52:28;4.10;;;3.40;;
76171;SDS011;64929;51.178;4.138;2023-06-14T01:54:54;3.17;;;2.80;;
76171;SDS011;64929;51.178;4.138;2023-06-14T01:57:19;4.35;;;3.50;;
76171;SDS011;64929;51.178;4.138;2023-06-14T01:59:46;4.07;;;3.22;;
76171;SDS011;64929;51.178;4.138;2023-06-14T02:02:13;4.90;;;3.60;;
76171;SDS011;64929;51.178;4.138;2023-06-14T02:04:40;3.90;;;3.00;;
76171;SDS011;64929;51.178;4.138;2023-06-14T02:07:06;6.40;;;3.78;;
76171;SDS011;64929;51.178;4.138;2023-06-14T02:09:33;5.28;;;3.45;;
76171;SDS011;64929;51.178;4.138;2023-06-14T02:11:59;3.65;;;3.10;;
76171;SDS011;64929;51.178;4.138;2023-06-14T02:14:25;3.30;;;3.00;;
76171;SDS011;64929;51.178;4.138;2023-06-14T02:16:51;4.13;;;3.55;;
76171;SDS011;64929;51.178;4.138;2023-06-14T02:19:18;7.53;;;3.30;;
76171;SDS011;64929;51.178;4.138;2023-06-14T02:21:45;4.70;;;3.75;;
76171;SDS011;64929;51.178;4.138;2023-06-14T02:24:12;4.10;;;3.22;;
76171;SDS011;64929;51.178;4.138;2023-06-14T02:26:38;5.55;;;3.40;;
76171;SDS011;64929;51.178;4.138;2023-06-14T02:29:05;5.38;;;3.30;;
76171;SDS011;64929;51.178;4.138;2023-06-14T02:31:31;4.82;;;3.50;;
76171;SDS011;64929;51.178;4.138;2023-06-14T02:33:58;5.25;;;3.22;;
76171;SDS011;64929;51.178;4.138;2023-06-14T02:36:23;6.38;;;3.88;;
76171;SDS011;64929;51.178;4.138;2023-06-14T02:38:50;5.93;;;2.90;;
76171;SDS011;64929;51.178;4.138;2023-06-14T02:41:15;3.38;;;3.00;;
76171;SDS011;64929;51.178;4.138;2023-06-14T02:43:41;3.70;;;3.00;;
76171;SDS011;64929;51.178;4.138;2023-06-14T02:46:07;3.47;;;2.97;;
76171;SDS011;64929;51.178;4.138;2023-06-14T02:48:33;6.80;;;3.03;;
76171;SDS011;64929;51.178;4.138;2023-06-14T02:50:59;3.05;;;2.72;;
76171;SDS011;64929;51.178;4.138;2023-06-14T02:53:25;3.80;;;3.35;;
76171;SDS011;64929;51.178;4.138;2023-06-14T02:55:50;3.92;;;2.95;;
76171;SDS011;64929;51.178;4.138;2023-06-14T02:58:17;3.55;;;2.80;;
76171;SDS011;64929;51.178;4.138;2023-06-14T03:00:44;5.20;;;3.70;;
76171;SDS011;64929;51.178;4.138;2023-06-14T03:03:09;4.05;;;2.80;;
76171;SDS011;64929;51.178;4.138;2023-06-14T03:05:46;3.78;;;2.80;;
76171;SDS011;64929;51.178;4.138;2023-06-14T03:08:15;5.07;;;2.88;;
76171;SDS011;64929;51.178;4.138;2023-06-14T03:10:44;4.70;;;2.90;;
76171;SDS011;64929;51.178;4.138;2023-06-14T03:13:13;4.55;;;2.83;;
76171;SDS011;64929;51.178;4.138;2023-06-14T03:15:41;4.10;;;3.05;;
76171;SDS011;64929;51.178;4.138;2023-06-14T03:18:10;4.38;;;3.22;;
76171;SDS011;64929;51.178;4.138;2023-06-14T03:20:37;4.03;;;3.17;;
76171;SDS011;64929;51.178;4.138;2023-06-14T03:23:04;4.55;;;2.72;;
76171;SDS011;64929;51.178;4.138;2023-06-14T03:25:30;3.20;;;2.90;;
76171;SDS011;64929;51.178;4.138;2023-06-14T03:27:58;4.72;;;2.65;;
76171;SDS011;64929;51.178;4.138;2023-06-14T03:30:23;3.88;;;2.80;;
76171;SDS011;64929;51.178;4.138;2023-06-14T03:32:49;4.53;;;2.53;;
76171;SDS011;64929;51.178;4.138;2023-06-14T03:35:18;4.10;;;2.78;;
76171;SDS011;64929;51.178;4.138;2023-06-14T03:37:44;5.20;;;2.70;;
76171;SDS011;64929;51.178;4.138;2023-06-14T03:40:11;3.88;;;2.53;;
76171;SDS011;64929;51.178;4.138;2023-06-14T03:42:38;3.60;;;2.63;;
76171;SDS011;64929;51.178;4.138;2023-06-14T03:45:05;5.15;;;2.70;;
76171;SDS011;64929;51.178;4.138;2023-06-14T03:47:31;6.60;;;2.85;;
76171;SDS011;64929;51.178;4.138;2023-06-14T03:49:57;3.55;;;2.40;;
76171;SDS011;64929;51.178;4.138;2023-06-14T03:52:23;4.05;;;2.40;;
76171;SDS011;64929;51.178;4.138;2023-06-14T03:54:50;5.25;;;2.72;;
76171;SDS011;64929;51.178;4.138;2023-06-14T03:57:16;3.75;;;2.53;;
76171;SDS011;64929;51.178;4.138;2023-06-14T03:59:42;3.65;;;2.50;;
76171;SDS011;64929;51.178;4.138;2023-06-14T04:02:08;3.97;;;2.60;;
76171;SDS011;64929;51.178;4.138;2023-06-14T04:04:35;4.43;;;2.90;;
76171;SDS011;64929;51.178;4.138;2023-06-14T04:07:01;3.70;;;2.55;;
76171;SDS011;64929;51.178;4.138;2023-06-14T04:09:28;3.33;;;2.97;;
76171;SDS011;64929;51.178;4.138;2023-06-14T04:11:55;5.00;;;2.67;;
76171;SDS011;64929;51.178;4.138;2023-06-14T04:14:21;8.45;;;2.75;;
76171;SDS011;64929;51.178;4.138;2023-06-14T04:16:47;3.35;;;2.72;;
76171;SDS011;64929;51.178;4.138;2023-06-14T04:19:14;3.72;;;2.67;;
76171;SDS011;64929;51.178;4.138;2023-06-14T04:21:40;3.67;;;2.92;;
76171;SDS011;64929;51.178;4.138;2023-06-14T04:24:07;3.28;;;2.58;;
76171;SDS011;64929;51.178;4.138;2023-06-14T04:26:38;3.30;;;2.35;;
76171;SDS011;64929;51.178;4.138;2023-06-14T04:29:04;3.22;;;2.58;;
76171;SDS011;64929;51.178;4.138;2023-06-14T04:31:30;4.40;;;2.80;;
76171;SDS011;64929;51.178;4.138;2023-06-14T04:33:58;5.97;;;2.78;;
76171;SDS011;64929;51.178;4.138;2023-06-14T04:36:25;4.10;;;2.95;;
76171;SDS011;64929;51.178;4.138;2023-06-14T04:38:53;4.00;;;2.90;;
76171;SDS011;64929;51.178;4.138;2023-06-14T04:41:21;6.05;;;3.15;;
76171;SDS011;64929;51.178;4.138;2023-06-14T04:43:48;3.33;;;2.75;;
76171;SDS011;64929;51.178;4.138;2023-06-14T04:46:14;6.78;;;3.53;;
76171;SDS011;64929;51.178;4.138;2023-06-14T04:48:42;5.82;;;3.47;;
76171;SDS011;64929;51.178;4.138;2023-06-14T04:51:08;5.75;;;3.20;;
76171;SDS011;64929;51.178;4.138;2023-06-14T04:53:34;5.13;;;3.10;;
76171;SDS011;64929;51.178;4.138;2023-06-14T04:56:00;5.50;;;3.28;;
76171;SDS011;64929;51.178;4.138;2023-06-14T04:58:26;5.60;;;3.20;;
76171;SDS011;64929;51.178;4.138;2023-06-14T05:00:53;4.53;;;3.25;;
76171;SDS011;64929;51.178;4.138;2023-06-14T05:03:21;5.57;;;3.13;;
76171;SDS011;64929;51.178;4.138;2023-06-14T05:05:49;4.35;;;3.30;;
76171;SDS011;64929;51.178;4.138;2023-06-14T05:08:15;5.45;;;3.42;;
76171;SDS011;64929;51.178;4.138;2023-06-14T05:10:41;4.78;;;2.92;;
76171;SDS011;64929;51.178;4.138;2023-06-14T05:13:07;5.93;;;3.45;;
76171;SDS011;64929;51.178;4.138;2023-06-14T05:15:33;5.40;;;3.08;;
76171;SDS011;64929;51.178;4.138;2023-06-14T05:17:59;4.63;;;3.15;;
76171;SDS011;64929;51.178;4.138;2023-06-14T05:20:24;4.45;;;3.20;;
76171;SDS011;64929;51.178;4.138;2023-06-14T05:22:54;4.68;;;3.30;;
76171;SDS011;64929;51.178;4.138;2023-06-14T05:25:22;6.30;;;3.35;;
76171;SDS011;64929;51.178;4.138;2023-06-14T05:27:48;5.60;;;3.50;;
76171;SDS011;64929;51.178;4.138;2023-06-14T05:30:14;4.03;;;2.85;;
76171;SDS011;64929;51.178;4.138;2023-06-14T05:32:40;4.85;;;2.80;;
76171;SDS011;64929;51.178;4.138;2023-06-14T05:35:06;7.10;;;3.15;;
76171;SDS011;64929;51.178;4.138;2023-06-14T05:37:32;4.78;;;3.45;;
76171;SDS011;64929;51.178;4.138;2023-06-14T05:39:58;4.93;;;3.17;;
76171;SDS011;64929;51.178;4.138;2023-06-14T05:42:23;4.68;;;3.50;;
76171;SDS011;64929;51.178;4.138;2023-06-14T05:44:49;4.43;;;3.47;;
76171;SDS011;64929;51.178;4.138;2023-06-14T05:47:15;4.18;;;3.30;;
76171;SDS011;64929;51.178;4.138;2023-06-14T05:49:41;4.70;;;3.50;;
76171;SDS011;64929;51.178;4.138;2023-06-14T05:52:07;4.93;;;3.20;;
76171;SDS011;64929;51.178;4.138;2023-06-14T05:54:33;7.82;;;3.97;;
76171;SDS011;64929;51.178;4.138;2023-06-14T05:56:59;5.75;;;3.53;;
76171;SDS011;64929;51.178;4.138;2023-06-14T05:59:29;6.85;;;3.50;;
76171;SDS011;64929;51.178;4.138;2023-06-14T06:01:55;6.43;;;3.78;;
76171;SDS011;64929;51.178;4.138;2023-06-14T06:04:21;6.03;;;3.63;;
76171;SDS011;64929;51.178;4.138;2023-06-14T06:06:46;7.22;;;3.45;;
76171;SDS011;64929;51.178;4.138;2023-06-14T06:09:13;4.63;;;3.75;;
76171;SDS011;64929;51.178;4.138;2023-06-14T06:11:39;5.07;;;3.70;;
76171;SDS011;64929;51.178;4.138;2023-06-14T06:14:05;6.88;;;3.58;;
76171;SDS011;64929;51.178;4.138;2023-06-14T06:16:31;4.90;;;3.30;;
76171;SDS011;64929;51.178;4.138;2023-06-14T06:18:57;3.67;;;2.80;;
76171;SDS011;64929;51.178;4.138;2023-06-14T06:21:23;5.00;;;3.40;;
76171;SDS011;64929;51.178;4.138;2023-06-14T06:23:49;4.75;;;3.22;;
76171;SDS011;64929;51.178;4.138;2023-06-14T06:26:15;12.25;;;3.83;;
76171;SDS011;64929;51.178;4.138;2023-06-14T06:28:40;3.78;;;2.80;;
76171;SDS011;64929;51.178;4.138;2023-06-14T06:31:06;5.25;;;3.40;;
76171;SDS011;64929;51.178;4.138;2023-06-14T06:33:32;3.60;;;3.22;;
76171;SDS011;64929;51.178;4.138;2023-06-14T06:35:57;4.30;;;3.03;;
76171;SDS011;64929;51.178;4.138;2023-06-14T06:38:23;5.72;;;3.40;;
76171;SDS011;64929;51.178;4.138;2023-06-14T06:40:49;5.47;;;3.10;;
76171;SDS011;64929;51.178;4.138;2023-06-14T06:43:14;7.65;;;3.95;;
76171;SDS011;64929;51.178;4.138;2023-06-14T06:45:42;4.50;;;3.10;;
76171;SDS011;64929;51.178;4.138;2023-06-14T06:48:07;5.18;;;3.78;;
76171;SDS011;64929;51.178;4.138;2023-06-14T06:50:35;5.45;;;3.25;;
76171;SDS011;64929;51.178;4.138;2023-06-14T06:53:01;4.97;;;3.80;;
76171;SDS011;64929;51.178;4.138;2023-06-14T06:55:27;6.13;;;4.00;;
76171;SDS011;64929;51.178;4.138;2023-06-14T06:57:53;5.57;;;3.40;;
76171;SDS011;64929;51.178;4.138;2023-06-14T07:00:19;5.63;;;4.00;;
76171;SDS011;64929;51.178;4.138;2023-06-14T07:02:46;4.35;;;3.45;;
76171;SDS011;64929;51.178;4.138;2023-06-14T07:05:12;4.63;;;3.22;;
76171;SDS011;64929;51.178;4.138;2023-06-14T07:07:38;3.38;;;2.95;;
76171;SDS011;64929;51.178;4.138;2023-06-14T07:10:04;4.90;;;3.47;;
76171;SDS011;64929;51.178;4.138;2023-06-14T07:12:32;5.63;;;3.40;;
76171;SDS011;64929;51.178;4.138;2023-06-14T07:15:01;6.90;;;3.50;;
76171;SDS011;64929;51.178;4.138;2023-06-14T07:17:26;5.70;;;3.35;;
76171;SDS011;64929;51.178;4.138;2023-06-14T07:19:52;5.88;;;3.40;;
76171;SDS011;64929;51.178;4.138;2023-06-14T07:22:18;4.55;;;3.40;;
76171;SDS011;64929;51.178;4.138;2023-06-14T07:24:45;4.25;;;3.25;;
76171;SDS011;64929;51.178;4.138;2023-06-14T07:27:10;4.57;;;3.40;;
76171;SDS011;64929;51.178;4.138;2023-06-14T07:29:38;6.38;;;3.92;;
76171;SDS011;64929;51.178;4.138;2023-06-14T07:32:03;8.25;;;4.45;;
76171;SDS011;64929;51.178;4.138;2023-06-14T07:34:30;5.90;;;4.15;;
76171;SDS011;64929;51.178;4.138;2023-06-14T07:36:55;7.55;;;3.97;;
76171;SDS011;64929;51.178;4.138;2023-06-14T07:39:21;5.10;;;3.75;;
76171;SDS011;64929;51.178;4.138;2023-06-14T07:41:47;7.10;;;4.20;;
76171;SDS011;64929;51.178;4.138;2023-06-14T07:44:13;6.15;;;4.03;;
76171;SDS011;64929;51.178;4.138;2023-06-14T07:46:38;8.98;;;4.45;;
76171;SDS011;64929;51.178;4.138;2023-06-14T07:49:04;6.93;;;4.95;;
76171;SDS011;64929;51.178;4.138;2023-06-14T07:51:30;5.00;;;3.85;;
76171;SDS011;64929;51.178;4.138;2023-06-14T07:53:56;8.35;;;4.82;;
76171;SDS011;64929;51.178;4.138;2023-06-14T07:56:22;7.65;;;4.47;;
76171;SDS011;64929;51.178;4.138;2023-06-14T07:58:48;6.93;;;4.40;;
76171;SDS011;64929;51.178;4.138;2023-06-14T08:01:13;10.65;;;4.68;;
76171;SDS011;64929;51.178;4.138;2023-06-14T08:03:40;6.78;;;4.70;;
76171;SDS011;64929;51.178;4.138;2023-06-14T08:06:06;6.28;;;4.25;;
76171;SDS011;64929;51.178;4.138;2023-06-14T08:08:32;5.25;;;4.20;;
76171;SDS011;64929;51.178;4.138;2023-06-14T08:10:58;5.75;;;4.00;;
76171;SDS011;64929;51.178;4.138;2023-06-14T08:13:23;5.82;;;4.45;;
76171;SDS011;64929;51.178;4.138;2023-06-14T08:15:49;7.07;;;4.50;;
76171;SDS011;64929;51.178;4.138;2023-06-14T08:18:15;8.15;;;4.43;;
76171;SDS011;64929;51.178;4.138;2023-06-14T08:20:41;6.40;;;4.22;;
76171;SDS011;64929;51.178;4.138;2023-06-14T08:23:06;5.70;;;3.92;;
76171;SDS011;64929;51.178;4.138;2023-06-14T08:25:33;5.32;;;4.05;;
76171;SDS011;64929;51.178;4.138;2023-06-14T08:27:59;6.35;;;3.88;;
76171;SDS011;64929;51.178;4.138;2023-06-14T08:30:25;6.90;;;3.85;;
76171;SDS011;64929;51.178;4.138;2023-06-14T08:32:50;6.25;;;3.90;;
76171;SDS011;64929;51.178;4.138;2023-06-14T08:35:17;5.18;;;3.85;;
76171;SDS011;64929;51.178;4.138;2023-06-14T08:37:43;5.63;;;3.40;;
76171;SDS011;64929;51.178;4.138;2023-06-14T08:40:19;4.53;;;3.55;;
76171;SDS011;64929;51.178;4.138;2023-06-14T08:42:53;3.90;;;3.15;;
76171;SDS011;64929;51.178;4.138;2023-06-14T08:45:23;8.38;;;3.78;;
76171;SDS011;64929;51.178;4.138;2023-06-14T08:47:50;5.82;;;3.55;;
76171;SDS011;64929;51.178;4.138;2023-06-14T08:50:23;7.78;;;4.82;;
76171;SDS011;64929;51.178;4.138;2023-06-14T08:52:55;6.32;;;3.40;;
76171;SDS011;64929;51.178;4.138;2023-06-14T08:55:25;5.70;;;3.90;;
76171;SDS011;64929;51.178;4.138;2023-06-14T08:57:56;5.90;;;3.60;;
76171;SDS011;64929;51.178;4.138;2023-06-14T09:00:23;3.97;;;3.28;;
76171;SDS011;64929;51.178;4.138;2023-06-14T09:02:50;4.38;;;3.65;;
76171;SDS011;64929;51.178;4.138;2023-06-14T09:05:20;5.72;;;3.80;;
76171;SDS011;64929;51.178;4.138;2023-06-14T09:07:48;6.50;;;3.90;;
76171;SDS011;64929;51.178;4.138;2023-06-14T09:10:15;7.43;;;3.60;;
76171;SDS011;64929;51.178;4.138;2023-06-14T09:12:42;5.10;;;3.50;;
76171;SDS011;64929;51.178;4.138;2023-06-14T09:15:08;6.10;;;3.70;;
76171;SDS011;64929;51.178;4.138;2023-06-14T09:17:35;4.25;;;3.30;;
76171;SDS011;64929;51.178;4.138;2023-06-14T09:20:05;6.05;;;3.97;;
76171;SDS011;64929;51.178;4.138;2023-06-14T09:22:36;8.82;;;4.13;;
76171;SDS011;64929;51.178;4.138;2023-06-14T09:25:03;4.75;;;3.85;;
76171;SDS011;64929;51.178;4.138;2023-06-14T09:27:29;4.03;;;3.03;;
76171;SDS011;64929;51.178;4.138;2023-06-14T09:29:55;6.05;;;3.58;;
76171;SDS011;64929;51.178;4.138;2023-06-14T09:32:21;8.73;;;3.72;;
76171;SDS011;64929;51.178;4.138;2023-06-14T09:34:47;3.72;;;3.20;;
76171;SDS011;64929;51.178;4.138;2023-06-14T09:37:17;4.78;;;4.05;;
76171;SDS011;64929;51.178;4.138;2023-06-14T09:39:52;4.40;;;3.40;;
76171;SDS011;64929;51.178;4.138;2023-06-14T09:42:18;5.40;;;3.47;;
76171;SDS011;64929;51.178;4.138;2023-06-14T09:44:46;6.75;;;3.70;;
76171;SDS011;64929;51.178;4.138;2023-06-14T09:47:13;3.85;;;3.22;;
76171;SDS011;64929;51.178;4.138;2023-06-14T09:49:40;3.83;;;3.05;;
76171;SDS011;64929;51.178;4.138;2023-06-14T09:52:06;4.90;;;3.80;;
76171;SDS011;64929;51.178;4.138;2023-06-14T09:54:35;3.27;;;2.80;;
76171;SDS011;64929;51.178;4.138;2023-06-14T09:57:11;5.65;;;3.33;;
76171;SDS011;64929;51.178;4.138;2023-06-14T09:59:39;4.10;;;3.20;;
76171;SDS011;64929;51.178;4.138;2023-06-14T10:02:11;5.32;;;3.05;;
76171;SDS011;64929;51.178;4.138;2023-06-14T10:04:52;5.05;;;2.90;;
76171;SDS011;64929;51.178;4.138;2023-06-14T10:07:25;3.83;;;3.15;;
76171;SDS011;64929;51.178;4.138;2023-06-14T10:09:55;3.65;;;2.78;;
76171;SDS011;64929;51.178;4.138;2023-06-14T10:12:21;3.85;;;2.70;;
76171;SDS011;64929;51.178;4.138;2023-06-14T10:14:51;10.43;;;3.13;;
76171;SDS011;64929;51.178;4.138;2023-06-14T10:17:26;3.45;;;3.00;;
76171;SDS011;64929;51.178;4.138;2023-06-14T10:20:20;8.38;;;3.10;;
76171;SDS011;64929;51.178;4.138;2023-06-14T10:22:58;5.35;;;2.80;;
76171;SDS011;64929;51.178;4.138;2023-06-14T10:25:29;2.65;;;2.45;;
76171;SDS011;64929;51.178;4.138;2023-06-14T10:28:29;4.05;;;2.55;;
76171;SDS011;64929;51.178;4.138;2023-06-14T10:33:55;4.13;;;2.60;;
76171;SDS011;64929;51.178;4.138;2023-06-14T10:39:10;2.95;;;2.30;;
76171;SDS011;64929;51.178;4.138;2023-06-14T10:41:41;3.20;;;2.67;;
76171;SDS011;64929;51.178;4.138;2023-06-14T10:44:10;3.97;;;2.75;;
76171;SDS011;64929;51.178;4.138;2023-06-14T10:46:39;3.15;;;2.38;;
76171;SDS011;64929;51.178;4.138;2023-06-14T10:49:05;2.92;;;2.42;;
76171;SDS011;64929;51.178;4.138;2023-06-14T10:51:53;3.42;;;2.60;;
76171;SDS011;64929;51.178;4.138;2023-06-14T10:54:20;5.20;;;2.97;;
76171;SDS011;64929;51.178;4.138;2023-06-14T10:56:47;3.53;;;2.50;;
76171;SDS011;64929;51.178;4.138;2023-06-14T10:59:17;5.70;;;2.58;;
76171;SDS011;64929;51.178;4.138;2023-06-14T11:04:15;3.20;;;2.33;;
76171;SDS011;64929;51.178;4.138;2023-06-14T11:06:46;3.35;;;2.55;;
76171;SDS011;64929;51.178;4.138;2023-06-14T11:11:48;5.72;;;2.33;;
76171;SDS011;64929;51.178;4.138;2023-06-14T11:14:16;2.97;;;2.50;;
76171;SDS011;64929;51.178;4.138;2023-06-14T11:16:47;3.35;;;2.60;;
76171;SDS011;64929;51.178;4.138;2023-06-14T11:19:13;2.80;;;2.50;;
76171;SDS011;64929;51.178;4.138;2023-06-14T11:21:40;4.03;;;2.45;;
76171;SDS011;64929;51.178;4.138;2023-06-14T11:24:09;5.03;;;2.70;;
76171;SDS011;64929;51.178;4.138;2023-06-14T11:26:37;2.55;;;2.35;;
76171;SDS011;64929;51.178;4.138;2023-06-14T11:29:03;4.82;;;2.30;;
76171;SDS011;64929;51.178;4.138;2023-06-14T11:31:29;2.90;;;2.13;;
76171;SDS011;64929;51.178;4.138;2023-06-14T11:33:55;2.72;;;2.42;;
76171;SDS011;64929;51.178;4.138;2023-06-14T11:36:22;2.85;;;2.05;;
76171;SDS011;64929;51.178;4.138;2023-06-14T11:38:48;3.20;;;2.42;;
76171;SDS011;64929;51.178;4.138;2023-06-14T11:41:14;2.83;;;2.33;;
76171;SDS011;64929;51.178;4.138;2023-06-14T11:43:40;4.72;;;2.28;;
76171;SDS011;64929;51.178;4.138;2023-06-14T11:46:12;3.03;;;2.50;;
76171;SDS011;64929;51.178;4.138;2023-06-14T11:48:40;3.95;;;2.38;;
76171;SDS011;64929;51.178;4.138;2023-06-14T11:51:07;2.85;;;2.25;;
76171;SDS011;64929;51.178;4.138;2023-06-14T11:53:33;2.80;;;2.45;;
76171;SDS011;64929;51.178;4.138;2023-06-14T11:55:59;5.28;;;2.38;;
76171;SDS011;64929;51.178;4.138;2023-06-14T11:58:25;4.82;;;2.63;;
76171;SDS011;64929;51.178;4.138;2023-06-14T12:00:52;3.15;;;2.55;;
76171;SDS011;64929;51.178;4.138;2023-06-14T12:03:22;3.67;;;2.10;;
76171;SDS011;64929;51.178;4.138;2023-06-14T12:06:05;3.60;;;2.60;;
76171;SDS011;64929;51.178;4.138;2023-06-14T12:08:38;4.53;;;2.45;;
76171;SDS011;64929;51.178;4.138;2023-06-14T12:11:11;2.55;;;2.35;;
76171;SDS011;64929;51.178;4.138;2023-06-14T12:13:41;3.60;;;2.20;;
76171;SDS011;64929;51.178;4.138;2023-06-14T12:16:15;2.67;;;2.20;;
76171;SDS011;64929;51.178;4.138;2023-06-14T12:18:44;4.05;;;2.75;;
76171;SDS011;64929;51.178;4.138;2023-06-14T12:21:16;3.10;;;2.47;;
76171;SDS011;64929;51.178;4.138;2023-06-14T12:23:54;2.10;;;1.90;;
76171;SDS011;64929;51.178;4.138;2023-06-14T12:26:20;3.95;;;2.53;;
76171;SDS011;64929;51.178;4.138;2023-06-14T12:28:46;3.05;;;1.95;;
76171;SDS011;64929;51.178;4.138;2023-06-14T12:31:13;10.77;;;2.22;;
76171;SDS011;64929;51.178;4.138;2023-06-14T12:33:40;3.17;;;2.38;;
76171;SDS011;64929;51.178;4.138;2023-06-14T12:36:06;3.75;;;2.60;;
76171;SDS011;64929;51.178;4.138;2023-06-14T12:38:33;2.83;;;2.00;;
76171;SDS011;64929;51.178;4.138;2023-06-14T12:40:59;2.67;;;2.03;;
76171;SDS011;64929;51.178;4.138;2023-06-14T12:43:25;11.43;;;2.13;;
76171;SDS011;64929;51.178;4.138;2023-06-14T12:45:51;3.50;;;2.08;;
76171;SDS011;64929;51.178;4.138;2023-06-14T12:48:17;2.10;;;1.90;;
76171;SDS011;64929;51.178;4.138;2023-06-14T12:50:42;2.33;;;2.13;;
76171;SDS011;64929;51.178;4.138;2023-06-14T12:53:08;2.55;;;1.90;;
76171;SDS011;64929;51.178;4.138;2023-06-14T12:55:34;5.95;;;2.42;;
76171;SDS011;64929;51.178;4.138;2023-06-14T12:58:00;2.10;;;1.60;;
76171;SDS011;64929;51.178;4.138;2023-06-14T13:00:26;2.65;;;1.90;;
76171;SDS011;64929;51.178;4.138;2023-06-14T13:02:51;1.80;;;1.70;;
76171;SDS011;64929;51.178;4.138;2023-06-14T13:05:18;2.30;;;2.10;;
76171;SDS011;64929;51.178;4.138;2023-06-14T13:07:44;2.17;;;1.80;;
76171;SDS011;64929;51.178;4.138;2023-06-14T13:10:10;4.93;;;1.67;;
76171;SDS011;64929;51.178;4.138;2023-06-14T13:12:36;3.13;;;1.85;;
76171;SDS011;64929;51.178;4.138;2023-06-14T13:15:01;2.00;;;1.80;;
76171;SDS011;64929;51.178;4.138;2023-06-14T13:17:27;1.75;;;1.65;;
76171;SDS011;64929;51.178;4.138;2023-06-14T13:19:53;5.15;;;2.00;;
76171;SDS011;64929;51.178;4.138;2023-06-14T13:22:18;3.83;;;1.77;;
76171;SDS011;64929;51.178;4.138;2023-06-14T13:24:45;2.15;;;1.52;;
76171;SDS011;64929;51.178;4.138;2023-06-14T13:27:10;5.78;;;1.70;;
76171;SDS011;64929;51.178;4.138;2023-06-14T13:29:36;2.08;;;1.50;;
76171;SDS011;64929;51.178;4.138;2023-06-14T13:32:03;1.80;;;1.48;;
76171;SDS011;64929;51.178;4.138;2023-06-14T13:34:32;2.38;;;1.30;;
76171;SDS011;64929;51.178;4.138;2023-06-14T13:36:58;1.98;;;1.60;;
76171;SDS011;64929;51.178;4.138;2023-06-14T13:39:27;3.47;;;1.60;;
76171;SDS011;64929;51.178;4.138;2023-06-14T13:41:53;1.65;;;1.30;;
76171;SDS011;64929;51.178;4.138;2023-06-14T13:44:19;1.83;;;1.50;;
76171;SDS011;64929;51.178;4.138;2023-06-14T13:46:46;1.40;;;1.30;;
76171;SDS011;64929;51.178;4.138;2023-06-14T13:49:12;2.97;;;1.10;;
76171;SDS011;64929;51.178;4.138;2023-06-14T13:51:38;4.13;;;1.88;;
76171;SDS011;64929;51.178;4.138;2023-06-14T13:54:04;1.15;;;1.05;;
76171;SDS011;64929;51.178;4.138;2023-06-14T13:56:30;1.40;;;1.27;;
76171;SDS011;64929;51.178;4.138;2023-06-14T13:58:56;2.15;;;1.05;;
76171;SDS011;64929;51.178;4.138;2023-06-14T14:01:21;0.98;;;0.90;;
76171;SDS011;64929;51.178;4.138;2023-06-14T14:03:48;1.50;;;1.40;;
76171;SDS011;64929;51.178;4.138;2023-06-14T14:06:14;3.22;;;1.20;;
76171;SDS011;64929;51.178;4.138;2023-06-14T14:08:40;1.58;;;1.05;;
76171;SDS011;64929;51.178;4.138;2023-06-14T14:11:07;5.35;;;1.38;;
76171;SDS011;64929;51.178;4.138;2023-06-14T14:13:34;0.95;;;0.80;;
76171;SDS011;64929;51.178;4.138;2023-06-14T14:16:01;1.33;;;0.95;;
76171;SDS011;64929;51.178;4.138;2023-06-14T14:18:28;0.88;;;0.88;;
76171;SDS011;64929;51.178;4.138;2023-06-14T14:20:54;1.30;;;0.82;;
76171;SDS011;64929;51.178;4.138;2023-06-14T14:23:21;2.72;;;0.90;;
76171;SDS011;64929;51.178;4.138;2023-06-14T14:25:47;1.80;;;0.80;;
76171;SDS011;64929;51.178;4.138;2023-06-14T14:28:13;1.25;;;0.80;;
76171;SDS011;64929;51.178;4.138;2023-06-14T14:30:41;0.70;;;0.70;;
76171;SDS011;64929;51.178;4.138;2023-06-14T14:33:07;1.15;;;0.70;;
76171;SDS011;64929;51.178;4.138;2023-06-14T14:35:33;0.77;;;0.60;;
76171;SDS011;64929;51.178;4.138;2023-06-14T14:37:59;0.60;;;0.60;;
76171;SDS011;64929;51.178;4.138;2023-06-14T14:40:24;1.23;;;0.73;;
76171;SDS011;64929;51.178;4.138;2023-06-14T14:42:50;0.82;;;0.75;;
76171;SDS011;64929;51.178;4.138;2023-06-14T14:45:16;2.17;;;0.80;;
76171;SDS011;64929;51.178;4.138;2023-06-14T14:47:41;0.60;;;0.60;;
76171;SDS011;64929;51.178;4.138;2023-06-14T14:50:07;0.65;;;0.65;;
76171;SDS011;64929;51.178;4.138;2023-06-14T14:52:33;0.90;;;0.90;;
76171;SDS011;64929;51.178;4.138;2023-06-14T14:54:59;1.00;;;0.70;;
76171;SDS011;64929;51.178;4.138;2023-06-14T14:57:26;1.25;;;0.80;;
76171;SDS011;64929;51.178;4.138;2023-06-14T14:59:52;0.75;;;0.75;;
76171;SDS011;64929;51.178;4.138;2023-06-14T15:02:18;1.25;;;0.70;;
76171;SDS011;64929;51.178;4.138;2023-06-14T15:04:44;1.05;;;0.80;;